sensor_id;sensor_type;location;lat;lon;timestamp;P1;durP1;ratioP1;P2;durP2;ratioP2
21213;SDS011;10764;50.850;2.904;2024-01-30T00:00:11;1185.97;;;999.90;;
21213;SDS011;10764;50.850;2.904;2024-01-30T00:02:39;1180.95;;;999.90;;
21213;SDS011;10764;50.850;2.904;2024-01-30T00:05:06;1166.90;;;999.90;;
21213;SDS011;10764;50.850;2.904;2024-01-30T00:07:34;1157.35;;;999.90;;
21213;SDS011;10764;50.850;2.904;2024-01-30T00:10:01;1161.10;;;999.90;;
21213;SDS011;10764;50.850;2.904;2024-01-30T00:12:28;1155.97;;;999.90;;
21213;SDS011;10764;50.850;2.904;2024-01-30T00:14:55;1156.20;;;999.90;;
21213;SDS011;10764;50.850;2.904;2024-01-30T00:17:23;1163.35;;;999.90;;
21213;SDS011;10764;50.850;2.904;2024-01-30T00:19:52;1150.50;;;999.90;;
21213;SDS011;10764;50.850;2.904;2024-01-30T00:22:20;1150.50;;;999.90;;
21213;SDS011;10764;50.850;2.904;2024-01-30T00:24:48;1148.57;;;999.90;;
21213;SDS011;10764;50.850;2.904;2024-01-30T00:27:15;1156.75;;;999.90;;
21213;SDS011;10764;50.850;2.904;2024-01-30T00:29:42;1154.47;;;999.90;;
21213;SDS011;10764;50.850;2.904;2024-01-30T00:32:09;1157.82;;;999.90;;
21213;SDS011;10764;50.850;2.904;2024-01-30T00:34:37;1157.47;;;999.90;;
21213;SDS011;10764;50.850;2.904;2024-01-30T00:37:04;1158.53;;;999.90;;
21213;SDS011;10764;50.850;2.904;2024-01-30T00:39:31;1155.88;;;999.90;;
21213;SDS011;10764;50.850;2.904;2024-01-30T00:41:59;1161.30;;;999.90;;
21213;SDS011;10764;50.850;2.904;2024-01-30T00:44:26;1162.55;;;999.90;;
21213;SDS011;10764;50.850;2.904;2024-01-30T00:46:53;1159.03;;;999.90;;
21213;SDS011;10764;50.850;2.904;2024-01-30T00:49:21;1161.80;;;999.90;;
21213;SDS011;10764;50.850;2.904;2024-01-30T00:51:48;1164.30;;;999.90;;
21213;SDS011;10764;50.850;2.904;2024-01-30T00:54:15;1167.93;;;999.90;;
21213;SDS011;10764;50.850;2.904;2024-01-30T00:56:43;1164.28;;;999.90;;
21213;SDS011;10764;50.850;2.904;2024-01-30T00:59:11;1163.75;;;999.90;;
21213;SDS011;10764;50.850;2.904;2024-01-30T01:01:38;1168.57;;;999.90;;
21213;SDS011;10764;50.850;2.904;2024-01-30T01:04:05;1166.78;;;999.90;;
21213;SDS011;10764;50.850;2.904;2024-01-30T01:06:33;1176.43;;;999.90;;
21213;SDS011;10764;50.850;2.904;2024-01-30T01:09:01;1165.78;;;999.90;;
21213;SDS011;10764;50.850;2.904;2024-01-30T01:11:30;1170.20;;;999.90;;
21213;SDS011;10764;50.850;2.904;2024-01-30T01:13:58;1166.72;;;999.90;;
21213;SDS011;10764;50.850;2.904;2024-01-30T01:16:25;1178.57;;;999.90;;
21213;SDS011;10764;50.850;2.904;2024-01-30T01:18:52;1172.63;;;999.90;;
21213;SDS011;10764;50.850;2.904;2024-01-30T01:21:20;1179.75;;;999.90;;
21213;SDS011;10764;50.850;2.904;2024-01-30T01:23:47;1196.05;;;999.90;;
21213;SDS011;10764;50.850;2.904;2024-01-30T01:26:14;1193.35;;;999.90;;
21213;SDS011;10764;50.850;2.904;2024-01-30T01:28:42;1198.80;;;999.90;;
21213;SDS011;10764;50.850;2.904;2024-01-30T01:31:09;1200.53;;;999.90;;
21213;SDS011;10764;50.850;2.904;2024-01-30T01:33:36;1202.15;;;999.90;;
21213;SDS011;10764;50.850;2.904;2024-01-30T01:36:04;1196.38;;;999.90;;
21213;SDS011;10764;50.850;2.904;2024-01-30T01:38:33;1199.10;;;999.90;;
21213;SDS011;10764;50.850;2.904;2024-01-30T01:41:00;1199.50;;;999.90;;
21213;SDS011;10764;50.850;2.904;2024-01-30T01:43:27;1199.20;;;999.90;;
21213;SDS011;10764;50.850;2.904;2024-01-30T01:45:55;1192.13;;;999.90;;
21213;SDS011;10764;50.850;2.904;2024-01-30T01:48:22;1191.90;;;999.90;;
21213;SDS011;10764;50.850;2.904;2024-01-30T01:50:49;1198.30;;;999.90;;
21213;SDS011;10764;50.850;2.904;2024-01-30T01:53:17;1194.35;;;999.90;;
21213;SDS011;10764;50.850;2.904;2024-01-30T01:55:45;1193.57;;;999.90;;
21213;SDS011;10764;50.850;2.904;2024-01-30T01:58:12;1190.25;;;999.90;;
21213;SDS011;10764;50.850;2.904;2024-01-30T02:00:39;1192.00;;;999.90;;
21213;SDS011;10764;50.850;2.904;2024-01-30T02:03:10;1192.03;;;999.90;;
21213;SDS011;10764;50.850;2.904;2024-01-30T02:05:39;1187.60;;;999.90;;
21213;SDS011;10764;50.850;2.904;2024-01-30T02:08:07;1190.22;;;999.90;;
21213;SDS011;10764;50.850;2.904;2024-01-30T02:10:35;1188.23;;;999.90;;
21213;SDS011;10764;50.850;2.904;2024-01-30T02:13:02;1191.28;;;999.90;;
21213;SDS011;10764;50.850;2.904;2024-01-30T02:15:31;1197.40;;;999.90;;
21213;SDS011;10764;50.850;2.904;2024-01-30T02:17:58;1198.57;;;999.90;;
21213;SDS011;10764;50.850;2.904;2024-01-30T02:20:25;1195.93;;;999.90;;
21213;SDS011;10764;50.850;2.904;2024-01-30T02:22:55;1195.50;;;999.90;;
21213;SDS011;10764;50.850;2.904;2024-01-30T02:25:36;1189.15;;;999.90;;
21213;SDS011;10764;50.850;2.904;2024-01-30T02:28:13;1186.75;;;999.90;;
21213;SDS011;10764;50.850;2.904;2024-01-30T02:30:44;1187.82;;;999.90;;
21213;SDS011;10764;50.850;2.904;2024-01-30T02:33:13;1190.03;;;999.90;;
21213;SDS011;10764;50.850;2.904;2024-01-30T02:35:41;1188.97;;;999.90;;
21213;SDS011;10764;50.850;2.904;2024-01-30T02:38:08;1192.22;;;999.90;;
21213;SDS011;10764;50.850;2.904;2024-01-30T02:40:35;1183.07;;;999.90;;
21213;SDS011;10764;50.850;2.904;2024-01-30T02:43:03;1190.87;;;999.90;;
21213;SDS011;10764;50.850;2.904;2024-01-30T02:45:30;1190.88;;;999.90;;
21213;SDS011;10764;50.850;2.904;2024-01-30T02:47:58;1190.90;;;999.90;;
21213;SDS011;10764;50.850;2.904;2024-01-30T02:50:25;1184.55;;;999.90;;
21213;SDS011;10764;50.850;2.904;2024-01-30T02:52:52;1189.32;;;999.90;;
21213;SDS011;10764;50.850;2.904;2024-01-30T02:55:20;1191.55;;;999.90;;
21213;SDS011;10764;50.850;2.904;2024-01-30T02:57:47;1186.22;;;999.90;;
21213;SDS011;10764;50.850;2.904;2024-01-30T03:00:15;1192.18;;;999.90;;
21213;SDS011;10764;50.850;2.904;2024-01-30T03:02:42;1191.18;;;999.90;;
21213;SDS011;10764;50.850;2.904;2024-01-30T03:05:09;1190.47;;;999.90;;
21213;SDS011;10764;50.850;2.904;2024-01-30T03:07:37;1192.72;;;999.90;;
21213;SDS011;10764;50.850;2.904;2024-01-30T03:10:04;1196.97;;;999.90;;
21213;SDS011;10764;50.850;2.904;2024-01-30T03:12:32;1189.43;;;999.90;;
21213;SDS011;10764;50.850;2.904;2024-01-30T03:14:59;1186.18;;;999.90;;
21213;SDS011;10764;50.850;2.904;2024-01-30T03:17:27;1191.38;;;999.90;;
21213;SDS011;10764;50.850;2.904;2024-01-30T03:19:54;1198.03;;;999.90;;
21213;SDS011;10764;50.850;2.904;2024-01-30T03:22:22;1193.68;;;999.90;;
21213;SDS011;10764;50.850;2.904;2024-01-30T03:24:50;1192.30;;;999.90;;
21213;SDS011;10764;50.850;2.904;2024-01-30T03:27:17;1198.95;;;999.90;;
21213;SDS011;10764;50.850;2.904;2024-01-30T03:29:44;1195.10;;;999.90;;
21213;SDS011;10764;50.850;2.904;2024-01-30T03:32:11;1196.67;;;999.90;;
21213;SDS011;10764;50.850;2.904;2024-01-30T03:34:39;1196.18;;;999.90;;
21213;SDS011;10764;50.850;2.904;2024-01-30T03:37:06;1196.45;;;999.90;;
21213;SDS011;10764;50.850;2.904;2024-01-30T03:39:33;1194.72;;;999.90;;
21213;SDS011;10764;50.850;2.904;2024-01-30T03:42:01;1200.67;;;999.90;;
21213;SDS011;10764;50.850;2.904;2024-01-30T03:44:28;1197.37;;;999.90;;
21213;SDS011;10764;50.850;2.904;2024-01-30T03:46:55;1198.85;;;999.90;;
21213;SDS011;10764;50.850;2.904;2024-01-30T03:49:23;1196.25;;;999.90;;
21213;SDS011;10764;50.850;2.904;2024-01-30T03:51:50;1197.78;;;999.90;;
21213;SDS011;10764;50.850;2.904;2024-01-30T03:54:18;1183.78;;;999.90;;
21213;SDS011;10764;50.850;2.904;2024-01-30T03:56:45;1190.77;;;999.90;;
21213;SDS011;10764;50.850;2.904;2024-01-30T03:59:12;1187.73;;;999.90;;
21213;SDS011;10764;50.850;2.904;2024-01-30T04:01:39;1187.88;;;999.90;;
21213;SDS011;10764;50.850;2.904;2024-01-30T04:04:07;1187.82;;;999.90;;
21213;SDS011;10764;50.850;2.904;2024-01-30T04:06:34;1194.13;;;999.90;;
21213;SDS011;10764;50.850;2.904;2024-01-30T04:09:03;1194.55;;;999.90;;
21213;SDS011;10764;50.850;2.904;2024-01-30T04:11:31;1196.00;;;999.90;;
21213;SDS011;10764;50.850;2.904;2024-01-30T04:13:58;1199.70;;;999.90;;
21213;SDS011;10764;50.850;2.904;2024-01-30T04:16:25;1191.72;;;999.90;;
21213;SDS011;10764;50.850;2.904;2024-01-30T04:18:53;1190.38;;;999.90;;
21213;SDS011;10764;50.850;2.904;2024-01-30T04:21:20;1196.78;;;999.90;;
21213;SDS011;10764;50.850;2.904;2024-01-30T04:23:48;1203.72;;;999.90;;
21213;SDS011;10764;50.850;2.904;2024-01-30T04:26:15;1205.28;;;999.90;;
21213;SDS011;10764;50.850;2.904;2024-01-30T04:28:46;1205.07;;;999.90;;
21213;SDS011;10764;50.850;2.904;2024-01-30T04:31:13;1204.80;;;999.90;;
21213;SDS011;10764;50.850;2.904;2024-01-30T04:33:40;1204.38;;;999.90;;
21213;SDS011;10764;50.850;2.904;2024-01-30T04:36:08;1213.53;;;999.90;;
21213;SDS011;10764;50.850;2.904;2024-01-30T04:38:39;1211.38;;;999.90;;
21213;SDS011;10764;50.850;2.904;2024-01-30T04:41:07;1214.30;;;999.90;;
21213;SDS011;10764;50.850;2.904;2024-01-30T04:43:33;1214.03;;;999.90;;
21213;SDS011;10764;50.850;2.904;2024-01-30T04:46:01;1213.68;;;999.90;;
21213;SDS011;10764;50.850;2.904;2024-01-30T04:48:28;1212.18;;;999.90;;
21213;SDS011;10764;50.850;2.904;2024-01-30T04:50:56;1223.67;;;999.90;;
21213;SDS011;10764;50.850;2.904;2024-01-30T04:53:23;1221.55;;;999.90;;
21213;SDS011;10764;50.850;2.904;2024-01-30T04:55:50;1222.93;;;999.90;;
21213;SDS011;10764;50.850;2.904;2024-01-30T04:58:18;1225.07;;;999.90;;
21213;SDS011;10764;50.850;2.904;2024-01-30T05:00:45;1226.70;;;999.90;;
21213;SDS011;10764;50.850;2.904;2024-01-30T05:03:18;1272.80;;;999.90;;
21213;SDS011;10764;50.850;2.904;2024-01-30T05:05:46;1271.38;;;999.90;;
21213;SDS011;10764;50.850;2.904;2024-01-30T05:08:13;1270.65;;;999.90;;
21213;SDS011;10764;50.850;2.904;2024-01-30T05:10:41;1238.20;;;999.90;;
21213;SDS011;10764;50.850;2.904;2024-01-30T05:13:08;1225.28;;;999.90;;
21213;SDS011;10764;50.850;2.904;2024-01-30T05:15:35;1227.18;;;999.90;;
21213;SDS011;10764;50.850;2.904;2024-01-30T05:18:03;1231.22;;;999.90;;
21213;SDS011;10764;50.850;2.904;2024-01-30T05:20:30;1224.97;;;999.90;;
21213;SDS011;10764;50.850;2.904;2024-01-30T05:22:58;1233.72;;;999.90;;
21213;SDS011;10764;50.850;2.904;2024-01-30T05:25:25;1236.68;;;999.90;;
21213;SDS011;10764;50.850;2.904;2024-01-30T05:27:52;1244.07;;;999.90;;
21213;SDS011;10764;50.850;2.904;2024-01-30T05:30:21;1229.30;;;999.90;;
21213;SDS011;10764;50.850;2.904;2024-01-30T05:32:50;1234.75;;;999.90;;
21213;SDS011;10764;50.850;2.904;2024-01-30T05:35:19;1229.82;;;999.90;;
21213;SDS011;10764;50.850;2.904;2024-01-30T05:37:48;1231.20;;;999.90;;
21213;SDS011;10764;50.850;2.904;2024-01-30T05:40:16;1231.03;;;999.90;;
21213;SDS011;10764;50.850;2.904;2024-01-30T05:42:43;1232.00;;;999.90;;
21213;SDS011;10764;50.850;2.904;2024-01-30T05:45:11;1231.30;;;999.90;;
21213;SDS011;10764;50.850;2.904;2024-01-30T05:47:38;1229.00;;;999.90;;
21213;SDS011;10764;50.850;2.904;2024-01-30T05:50:06;1229.20;;;999.90;;
21213;SDS011;10764;50.850;2.904;2024-01-30T05:52:34;1230.17;;;999.90;;
21213;SDS011;10764;50.850;2.904;2024-01-30T05:55:01;1227.80;;;999.90;;
21213;SDS011;10764;50.850;2.904;2024-01-30T05:57:29;1229.88;;;999.90;;
21213;SDS011;10764;50.850;2.904;2024-01-30T05:59:57;1237.90;;;999.90;;
21213;SDS011;10764;50.850;2.904;2024-01-30T06:02:24;1246.47;;;999.90;;
21213;SDS011;10764;50.850;2.904;2024-01-30T06:04:51;1247.70;;;999.90;;
21213;SDS011;10764;50.850;2.904;2024-01-30T06:07:18;1248.55;;;999.90;;
21213;SDS011;10764;50.850;2.904;2024-01-30T06:09:46;1248.47;;;999.90;;
21213;SDS011;10764;50.850;2.904;2024-01-30T06:12:13;1228.40;;;999.90;;
21213;SDS011;10764;50.850;2.904;2024-01-30T06:14:41;1228.30;;;999.90;;
21213;SDS011;10764;50.850;2.904;2024-01-30T06:17:12;1227.63;;;999.90;;
21213;SDS011;10764;50.850;2.904;2024-01-30T06:19:40;1230.72;;;999.90;;
21213;SDS011;10764;50.850;2.904;2024-01-30T06:22:08;1226.95;;;999.90;;
21213;SDS011;10764;50.850;2.904;2024-01-30T06:24:35;1226.00;;;999.90;;
21213;SDS011;10764;50.850;2.904;2024-01-30T06:27:03;1228.32;;;999.90;;
21213;SDS011;10764;50.850;2.904;2024-01-30T06:29:30;1228.82;;;999.90;;
21213;SDS011;10764;50.850;2.904;2024-01-30T06:31:57;1227.75;;;999.90;;
21213;SDS011;10764;50.850;2.904;2024-01-30T06:34:25;1223.10;;;999.90;;
21213;SDS011;10764;50.850;2.904;2024-01-30T06:36:55;1227.65;;;999.90;;
21213;SDS011;10764;50.850;2.904;2024-01-30T06:39:22;1226.93;;;999.90;;
21213;SDS011;10764;50.850;2.904;2024-01-30T06:41:50;1238.32;;;999.90;;
21213;SDS011;10764;50.850;2.904;2024-01-30T06:44:17;1231.03;;;999.90;;
21213;SDS011;10764;50.850;2.904;2024-01-30T06:46:44;1236.65;;;999.90;;
21213;SDS011;10764;50.850;2.904;2024-01-30T06:49:12;1243.75;;;999.90;;
21213;SDS011;10764;50.850;2.904;2024-01-30T06:51:39;1243.60;;;999.90;;
21213;SDS011;10764;50.850;2.904;2024-01-30T06:54:06;1262.70;;;999.90;;
21213;SDS011;10764;50.850;2.904;2024-01-30T06:56:34;1233.63;;;999.90;;
21213;SDS011;10764;50.850;2.904;2024-01-30T06:59:02;1239.70;;;999.90;;
21213;SDS011;10764;50.850;2.904;2024-01-30T07:01:29;1244.53;;;999.90;;
21213;SDS011;10764;50.850;2.904;2024-01-30T07:03:57;1233.95;;;999.90;;
21213;SDS011;10764;50.850;2.904;2024-01-30T07:06:25;1233.78;;;999.90;;
21213;SDS011;10764;50.850;2.904;2024-01-30T07:08:52;1233.90;;;999.90;;
21213;SDS011;10764;50.850;2.904;2024-01-30T07:11:21;1221.53;;;999.90;;
21213;SDS011;10764;50.850;2.904;2024-01-30T07:13:49;1223.55;;;999.90;;
21213;SDS011;10764;50.850;2.904;2024-01-30T07:16:17;1244.80;;;999.90;;
21213;SDS011;10764;50.850;2.904;2024-01-30T07:18:44;1253.90;;;999.90;;
21213;SDS011;10764;50.850;2.904;2024-01-30T07:21:12;1250.90;;;999.90;;
21213;SDS011;10764;50.850;2.904;2024-01-30T07:23:39;1258.15;;;999.90;;
21213;SDS011;10764;50.850;2.904;2024-01-30T07:26:08;1234.50;;;999.90;;
21213;SDS011;10764;50.850;2.904;2024-01-30T07:28:35;1243.03;;;999.90;;
21213;SDS011;10764;50.850;2.904;2024-01-30T07:31:03;1234.03;;;999.90;;
21213;SDS011;10764;50.850;2.904;2024-01-30T07:33:30;1232.03;;;999.90;;
21213;SDS011;10764;50.850;2.904;2024-01-30T07:35:57;1236.57;;;999.90;;
21213;SDS011;10764;50.850;2.904;2024-01-30T07:38:24;1235.53;;;999.90;;
21213;SDS011;10764;50.850;2.904;2024-01-30T07:40:52;1261.17;;;999.90;;
21213;SDS011;10764;50.850;2.904;2024-01-30T07:43:19;1263.00;;;999.90;;
21213;SDS011;10764;50.850;2.904;2024-01-30T07:45:47;1239.03;;;999.90;;
21213;SDS011;10764;50.850;2.904;2024-01-30T07:48:14;1238.30;;;999.90;;
21213;SDS011;10764;50.850;2.904;2024-01-30T07:50:42;1242.32;;;999.90;;
21213;SDS011;10764;50.850;2.904;2024-01-30T07:53:09;1239.47;;;999.90;;
21213;SDS011;10764;50.850;2.904;2024-01-30T07:55:37;1239.10;;;999.90;;
21213;SDS011;10764;50.850;2.904;2024-01-30T07:58:05;1246.50;;;999.90;;
21213;SDS011;10764;50.850;2.904;2024-01-30T08:00:33;1243.72;;;999.90;;
21213;SDS011;10764;50.850;2.904;2024-01-30T08:03:01;1236.03;;;999.90;;
21213;SDS011;10764;50.850;2.904;2024-01-30T08:05:28;1232.03;;;999.90;;
21213;SDS011;10764;50.850;2.904;2024-01-30T08:07:56;1260.07;;;999.90;;
21213;SDS011;10764;50.850;2.904;2024-01-30T08:10:23;1274.50;;;999.90;;
21213;SDS011;10764;50.850;2.904;2024-01-30T08:12:51;1274.28;;;999.90;;
21213;SDS011;10764;50.850;2.904;2024-01-30T08:15:18;1276.13;;;999.90;;
21213;SDS011;10764;50.850;2.904;2024-01-30T08:17:46;1278.22;;;999.90;;
21213;SDS011;10764;50.850;2.904;2024-01-30T08:20:13;1278.17;;;999.90;;
21213;SDS011;10764;50.850;2.904;2024-01-30T08:22:41;1277.50;;;999.90;;
21213;SDS011;10764;50.850;2.904;2024-01-30T08:25:08;1282.57;;;999.90;;
21213;SDS011;10764;50.850;2.904;2024-01-30T08:27:36;1277.10;;;999.90;;
21213;SDS011;10764;50.850;2.904;2024-01-30T08:30:06;1276.50;;;999.90;;
21213;SDS011;10764;50.850;2.904;2024-01-30T08:32:33;1280.60;;;999.90;;
21213;SDS011;10764;50.850;2.904;2024-01-30T08:35:00;1281.70;;;999.90;;
21213;SDS011;10764;50.850;2.904;2024-01-30T08:37:30;1284.15;;;999.90;;
21213;SDS011;10764;50.850;2.904;2024-01-30T08:39:57;1282.57;;;999.90;;
21213;SDS011;10764;50.850;2.904;2024-01-30T08:42:25;1281.60;;;999.90;;
21213;SDS011;10764;50.850;2.904;2024-01-30T08:44:52;1275.60;;;999.90;;
21213;SDS011;10764;50.850;2.904;2024-01-30T08:47:20;1252.68;;;999.90;;
21213;SDS011;10764;50.850;2.904;2024-01-30T08:49:47;1235.30;;;999.90;;
21213;SDS011;10764;50.850;2.904;2024-01-30T08:52:15;1236.40;;;999.90;;
21213;SDS011;10764;50.850;2.904;2024-01-30T08:54:42;1233.07;;;999.90;;
21213;SDS011;10764;50.850;2.904;2024-01-30T08:57:10;1291.28;;;999.90;;
21213;SDS011;10764;50.850;2.904;2024-01-30T08:59:37;1285.47;;;999.90;;
21213;SDS011;10764;50.850;2.904;2024-01-30T09:02:05;1286.13;;;999.90;;
21213;SDS011;10764;50.850;2.904;2024-01-30T09:04:38;1271.80;;;999.90;;
21213;SDS011;10764;50.850;2.904;2024-01-30T09:07:06;1263.15;;;999.90;;
21213;SDS011;10764;50.850;2.904;2024-01-30T09:09:39;1259.30;;;999.90;;
21213;SDS011;10764;50.850;2.904;2024-01-30T09:12:07;1257.22;;;999.90;;
21213;SDS011;10764;50.850;2.904;2024-01-30T09:14:38;1260.45;;;999.90;;
21213;SDS011;10764;50.850;2.904;2024-01-30T09:17:06;1263.45;;;999.90;;
21213;SDS011;10764;50.850;2.904;2024-01-30T09:19:34;1258.47;;;999.90;;
21213;SDS011;10764;50.850;2.904;2024-01-30T09:22:02;1253.20;;;999.90;;
21213;SDS011;10764;50.850;2.904;2024-01-30T09:24:29;1249.65;;;999.90;;
21213;SDS011;10764;50.850;2.904;2024-01-30T09:26:57;1254.25;;;999.90;;
21213;SDS011;10764;50.850;2.904;2024-01-30T09:29:24;1254.72;;;999.90;;
21213;SDS011;10764;50.850;2.904;2024-01-30T09:31:52;1257.15;;;999.90;;
21213;SDS011;10764;50.850;2.904;2024-01-30T09:34:19;1253.15;;;999.90;;
21213;SDS011;10764;50.850;2.904;2024-01-30T09:36:47;1251.10;;;999.90;;
21213;SDS011;10764;50.850;2.904;2024-01-30T09:39:15;1251.00;;;999.90;;
21213;SDS011;10764;50.850;2.904;2024-01-30T09:41:49;1254.07;;;999.90;;
21213;SDS011;10764;50.850;2.904;2024-01-30T09:44:19;1256.32;;;999.90;;
21213;SDS011;10764;50.850;2.904;2024-01-30T09:46:47;1252.88;;;999.90;;
21213;SDS011;10764;50.850;2.904;2024-01-30T09:49:14;1253.30;;;999.90;;
21213;SDS011;10764;50.850;2.904;2024-01-30T09:51:46;1253.65;;;999.90;;
21213;SDS011;10764;50.850;2.904;2024-01-30T09:54:15;1252.80;;;999.90;;
21213;SDS011;10764;50.850;2.904;2024-01-30T09:56:42;1254.22;;;999.90;;
21213;SDS011;10764;50.850;2.904;2024-01-30T09:59:10;1253.40;;;999.90;;
21213;SDS011;10764;50.850;2.904;2024-01-30T10:01:37;1249.82;;;999.90;;
21213;SDS011;10764;50.850;2.904;2024-01-30T10:04:05;1251.35;;;999.90;;
21213;SDS011;10764;50.850;2.904;2024-01-30T10:06:33;1250.03;;;999.90;;
21213;SDS011;10764;50.850;2.904;2024-01-30T10:09:01;1249.10;;;999.90;;
21213;SDS011;10764;50.850;2.904;2024-01-30T10:11:28;1249.57;;;999.90;;
21213;SDS011;10764;50.850;2.904;2024-01-30T10:13:55;1247.65;;;999.90;;
21213;SDS011;10764;50.850;2.904;2024-01-30T10:16:22;1249.32;;;999.90;;
21213;SDS011;10764;50.850;2.904;2024-01-30T10:18:50;1249.00;;;999.90;;
21213;SDS011;10764;50.850;2.904;2024-01-30T10:21:18;1244.83;;;999.90;;
21213;SDS011;10764;50.850;2.904;2024-01-30T10:23:45;1250.93;;;999.90;;
21213;SDS011;10764;50.850;2.904;2024-01-30T10:26:12;1246.90;;;999.90;;
21213;SDS011;10764;50.850;2.904;2024-01-30T10:28:40;1244.93;;;999.90;;
21213;SDS011;10764;50.850;2.904;2024-01-30T10:31:08;1240.35;;;999.90;;
21213;SDS011;10764;50.850;2.904;2024-01-30T10:33:35;1241.97;;;999.90;;
21213;SDS011;10764;50.850;2.904;2024-01-30T10:36:03;1242.70;;;999.90;;
21213;SDS011;10764;50.850;2.904;2024-01-30T10:38:32;1241.32;;;999.90;;
21213;SDS011;10764;50.850;2.904;2024-01-30T10:41:07;1254.22;;;999.90;;
21213;SDS011;10764;50.850;2.904;2024-01-30T10:43:35;1241.53;;;999.90;;
21213;SDS011;10764;50.850;2.904;2024-01-30T10:46:08;1239.05;;;999.90;;
21213;SDS011;10764;50.850;2.904;2024-01-30T10:48:42;1242.60;;;999.90;;
21213;SDS011;10764;50.850;2.904;2024-01-30T10:51:11;1235.07;;;999.90;;
21213;SDS011;10764;50.850;2.904;2024-01-30T10:53:38;1235.60;;;999.90;;
21213;SDS011;10764;50.850;2.904;2024-01-30T10:56:06;1234.43;;;999.90;;
21213;SDS011;10764;50.850;2.904;2024-01-30T10:58:34;1235.57;;;999.90;;
21213;SDS011;10764;50.850;2.904;2024-01-30T11:01:01;1236.75;;;999.90;;
21213;SDS011;10764;50.850;2.904;2024-01-30T11:03:29;1240.35;;;999.90;;
21213;SDS011;10764;50.850;2.904;2024-01-30T11:05:59;1259.78;;;999.90;;
21213;SDS011;10764;50.850;2.904;2024-01-30T11:08:28;1242.13;;;999.90;;
21213;SDS011;10764;50.850;2.904;2024-01-30T11:10:59;1234.57;;;999.90;;
21213;SDS011;10764;50.850;2.904;2024-01-30T11:13:29;1239.95;;;999.90;;
21213;SDS011;10764;50.850;2.904;2024-01-30T11:16:01;1240.63;;;999.90;;
21213;SDS011;10764;50.850;2.904;2024-01-30T11:18:30;1239.70;;;999.90;;
21213;SDS011;10764;50.850;2.904;2024-01-30T11:20:59;1238.95;;;999.90;;
21213;SDS011;10764;50.850;2.904;2024-01-30T11:23:28;1237.82;;;999.90;;
21213;SDS011;10764;50.850;2.904;2024-01-30T11:25:58;1246.25;;;999.90;;
21213;SDS011;10764;50.850;2.904;2024-01-30T11:28:34;1240.30;;;999.90;;
21213;SDS011;10764;50.850;2.904;2024-01-30T11:31:05;1238.07;;;999.90;;
21213;SDS011;10764;50.850;2.904;2024-01-30T11:33:38;1241.15;;;999.90;;
21213;SDS011;10764;50.850;2.904;2024-01-30T11:36:11;1240.45;;;999.90;;
21213;SDS011;10764;50.850;2.904;2024-01-30T11:38:40;1237.10;;;999.90;;
21213;SDS011;10764;50.850;2.904;2024-01-30T11:41:12;1233.00;;;999.90;;
21213;SDS011;10764;50.850;2.904;2024-01-30T11:43:41;1232.20;;;999.90;;
21213;SDS011;10764;50.850;2.904;2024-01-30T11:46:10;1229.45;;;999.90;;
21213;SDS011;10764;50.850;2.904;2024-01-30T11:48:40;1229.03;;;999.90;;
21213;SDS011;10764;50.850;2.904;2024-01-30T11:51:12;1232.30;;;999.90;;
21213;SDS011;10764;50.850;2.904;2024-01-30T11:53:39;1227.65;;;999.90;;
21213;SDS011;10764;50.850;2.904;2024-01-30T11:56:08;1229.55;;;999.90;;
21213;SDS011;10764;50.850;2.904;2024-01-30T11:58:37;1237.57;;;999.90;;
21213;SDS011;10764;50.850;2.904;2024-01-30T12:01:04;1240.37;;;999.90;;
21213;SDS011;10764;50.850;2.904;2024-01-30T12:03:32;1242.35;;;999.90;;
21213;SDS011;10764;50.850;2.904;2024-01-30T12:05:59;1233.80;;;999.90;;
21213;SDS011;10764;50.850;2.904;2024-01-30T12:08:27;1227.72;;;999.90;;
21213;SDS011;10764;50.850;2.904;2024-01-30T12:10:57;1225.40;;;999.90;;
21213;SDS011;10764;50.850;2.904;2024-01-30T12:13:25;1224.68;;;999.90;;
21213;SDS011;10764;50.850;2.904;2024-01-30T12:15:58;1221.30;;;999.90;;
21213;SDS011;10764;50.850;2.904;2024-01-30T12:18:25;1224.43;;;999.90;;
21213;SDS011;10764;50.850;2.904;2024-01-30T12:20:58;1228.47;;;999.90;;
21213;SDS011;10764;50.850;2.904;2024-01-30T12:23:27;1227.13;;;999.90;;
21213;SDS011;10764;50.850;2.904;2024-01-30T12:25:56;1223.47;;;999.90;;
21213;SDS011;10764;50.850;2.904;2024-01-30T12:28:24;1222.13;;;999.90;;
21213;SDS011;10764;50.850;2.904;2024-01-30T12:31:01;1222.70;;;999.90;;
21213;SDS011;10764;50.850;2.904;2024-01-30T12:33:29;1223.32;;;999.90;;
21213;SDS011;10764;50.850;2.904;2024-01-30T12:36:01;1221.97;;;999.90;;
21213;SDS011;10764;50.850;2.904;2024-01-30T12:38:30;1230.20;;;999.90;;
21213;SDS011;10764;50.850;2.904;2024-01-30T12:40:58;1226.97;;;999.90;;
21213;SDS011;10764;50.850;2.904;2024-01-30T12:43:26;1224.10;;;999.90;;
21213;SDS011;10764;50.850;2.904;2024-01-30T12:46:04;1224.27;;;999.90;;
21213;SDS011;10764;50.850;2.904;2024-01-30T12:48:32;1224.73;;;999.90;;
21213;SDS011;10764;50.850;2.904;2024-01-30T12:51:03;1222.00;;;999.90;;
21213;SDS011;10764;50.850;2.904;2024-01-30T12:53:33;1216.30;;;999.90;;
21213;SDS011;10764;50.850;2.904;2024-01-30T12:56:01;1217.82;;;999.90;;
21213;SDS011;10764;50.850;2.904;2024-01-30T12:58:31;1220.25;;;999.90;;
21213;SDS011;10764;50.850;2.904;2024-01-30T13:01:00;1223.47;;;999.90;;
21213;SDS011;10764;50.850;2.904;2024-01-30T13:03:27;1223.07;;;999.90;;
21213;SDS011;10764;50.850;2.904;2024-01-30T13:05:56;1220.93;;;999.90;;
21213;SDS011;10764;50.850;2.904;2024-01-30T13:08:23;1223.22;;;999.90;;
21213;SDS011;10764;50.850;2.904;2024-01-30T13:10:50;1223.55;;;999.90;;
21213;SDS011;10764;50.850;2.904;2024-01-30T13:13:18;1226.97;;;999.90;;
21213;SDS011;10764;50.850;2.904;2024-01-30T13:15:47;1229.00;;;999.90;;
21213;SDS011;10764;50.850;2.904;2024-01-30T13:18:14;1228.28;;;999.90;;
21213;SDS011;10764;50.850;2.904;2024-01-30T13:20:43;1229.50;;;999.90;;
21213;SDS011;10764;50.850;2.904;2024-01-30T13:23:10;1227.97;;;999.90;;
21213;SDS011;10764;50.850;2.904;2024-01-30T13:25:37;1228.28;;;999.90;;
21213;SDS011;10764;50.850;2.904;2024-01-30T13:28:05;1217.57;;;999.90;;
21213;SDS011;10764;50.850;2.904;2024-01-30T13:30:32;1220.22;;;999.90;;
21213;SDS011;10764;50.850;2.904;2024-01-30T13:33:00;1220.28;;;999.90;;
21213;SDS011;10764;50.850;2.904;2024-01-30T13:35:29;1223.05;;;999.90;;
21213;SDS011;10764;50.850;2.904;2024-01-30T13:37:57;1232.07;;;999.90;;
21213;SDS011;10764;50.850;2.904;2024-01-30T13:40:24;1221.57;;;999.90;;
21213;SDS011;10764;50.850;2.904;2024-01-30T13:42:52;1223.50;;;999.90;;
21213;SDS011;10764;50.850;2.904;2024-01-30T13:45:20;1222.57;;;999.90;;
21213;SDS011;10764;50.850;2.904;2024-01-30T13:47:49;1222.57;;;999.90;;